Terminal Aerodrome Forecast
Issued by NWS

Home | Current Version | Previous Version | Text Only | Print | Product List | Glossary On
Versions: 1 2 3 4 5 6 7 8 9 10 11 12 13 14 15
000
FTUS44 KLUB 221700
TAFCDS
TAF
KCDS 221733Z 2218/2318 20015G22KT P6SM SKC
     FM230100 18009KT P6SM FEW250
     FM231400 20014KT P6SM BKN200=

USA.gov is the U.S. government's official web portal to all federal, state and local government web resources and services.